sensor_id;sensor_type;location;lat;lon;timestamp;temperature;humidity
7307;DHT22;3694;48.732;9.248;2023-08-31T00:00:29;12.70;99.90
7307;DHT22;3694;48.732;9.248;2023-08-31T00:02:55;12.60;99.90
7307;DHT22;3694;48.732;9.248;2023-08-31T00:05:20;12.70;99.90
7307;DHT22;3694;48.732;9.248;2023-08-31T00:07:46;12.70;99.90
7307;DHT22;3694;48.732;9.248;2023-08-31T00:10:11;12.70;99.90
7307;DHT22;3694;48.732;9.248;2023-08-31T00:12:37;12.70;99.90
7307;DHT22;3694;48.732;9.248;2023-08-31T00:15:04;12.70;99.90
7307;DHT22;3694;48.732;9.248;2023-08-31T00:17:34;12.70;99.90
7307;DHT22;3694;48.732;9.248;2023-08-31T00:19:59;12.70;99.90
7307;DHT22;3694;48.732;9.248;2023-08-31T00:22:25;12.70;99.90
7307;DHT22;3694;48.732;9.248;2023-08-31T00:24:50;12.70;99.90
7307;DHT22;3694;48.732;9.248;2023-08-31T00:27:16;12.60;99.90
7307;DHT22;3694;48.732;9.248;2023-08-31T00:29:43;12.60;99.90
7307;DHT22;3694;48.732;9.248;2023-08-31T00:32:11;12.70;99.90
7307;DHT22;3694;48.732;9.248;2023-08-31T00:34:36;12.70;99.90
7307;DHT22;3694;48.732;9.248;2023-08-31T00:37:02;12.60;99.90
7307;DHT22;3694;48.732;9.248;2023-08-31T00:39:28;12.60;99.90
7307;DHT22;3694;48.732;9.248;2023-08-31T00:41:54;12.50;99.90
7307;DHT22;3694;48.732;9.248;2023-08-31T00:44:19;12.60;99.90
7307;DHT22;3694;48.732;9.248;2023-08-31T00:46:45;12.60;99.90
7307;DHT22;3694;48.732;9.248;2023-08-31T00:49:11;12.60;99.90
7307;DHT22;3694;48.732;9.248;2023-08-31T00:51:37;12.60;99.90
7307;DHT22;3694;48.732;9.248;2023-08-31T00:54:03;12.50;99.90
7307;DHT22;3694;48.732;9.248;2023-08-31T00:56:29;12.50;99.90
7307;DHT22;3694;48.732;9.248;2023-08-31T00:58:55;12.40;99.90
7307;DHT22;3694;48.732;9.248;2023-08-31T01:11:56;11.90;99.90
7307;DHT22;3694;48.732;9.248;2023-08-31T01:14:25;11.70;99.90
7307;DHT22;3694;48.732;9.248;2023-08-31T01:16:54;11.60;99.90
7307;DHT22;3694;48.732;9.248;2023-08-31T01:21:54;11.50;99.90
7307;DHT22;3694;48.732;9.248;2023-08-31T01:24:23;11.40;99.90
7307;DHT22;3694;48.732;9.248;2023-08-31T01:26:49;11.40;99.90
7307;DHT22;3694;48.732;9.248;2023-08-31T01:29:15;11.40;99.90
7307;DHT22;3694;48.732;9.248;2023-08-31T01:31:43;11.40;99.90
7307;DHT22;3694;48.732;9.248;2023-08-31T01:34:10;11.40;99.90
7307;DHT22;3694;48.732;9.248;2023-08-31T01:36:38;11.60;99.90
7307;DHT22;3694;48.732;9.248;2023-08-31T01:39:19;11.60;99.90
7307;DHT22;3694;48.732;9.248;2023-08-31T01:41:52;11.50;99.90
7307;DHT22;3694;48.732;9.248;2023-08-31T01:44:21;11.50;99.90
7307;DHT22;3694;48.732;9.248;2023-08-31T01:46:47;11.50;99.90
7307;DHT22;3694;48.732;9.248;2023-08-31T01:49:13;11.40;99.90
7307;DHT22;3694;48.732;9.248;2023-08-31T01:51:39;11.40;99.90
7307;DHT22;3694;48.732;9.248;2023-08-31T01:54:05;11.40;99.90
7307;DHT22;3694;48.732;9.248;2023-08-31T01:56:30;11.30;99.90
7307;DHT22;3694;48.732;9.248;2023-08-31T01:58:56;11.30;99.90
7307;DHT22;3694;48.732;9.248;2023-08-31T02:01:21;11.20;99.90
7307;DHT22;3694;48.732;9.248;2023-08-31T02:03:47;11.40;99.90
7307;DHT22;3694;48.732;9.248;2023-08-31T02:06:12;11.50;99.90
7307;DHT22;3694;48.732;9.248;2023-08-31T02:08:38;11.60;99.90
7307;DHT22;3694;48.732;9.248;2023-08-31T02:11:03;11.70;99.90
7307;DHT22;3694;48.732;9.248;2023-08-31T02:13:30;11.70;99.90
7307;DHT22;3694;48.732;9.248;2023-08-31T02:15:56;11.70;99.90
7307;DHT22;3694;48.732;9.248;2023-08-31T02:18:21;11.70;99.90
7307;DHT22;3694;48.732;9.248;2023-08-31T02:20:47;11.70;99.90
7307;DHT22;3694;48.732;9.248;2023-08-31T02:23:12;11.70;99.90
7307;DHT22;3694;48.732;9.248;2023-08-31T02:25:38;11.70;99.90
7307;DHT22;3694;48.732;9.248;2023-08-31T02:28:04;11.70;99.90
7307;DHT22;3694;48.732;9.248;2023-08-31T02:30:29;11.70;99.90
7307;DHT22;3694;48.732;9.248;2023-08-31T02:32:55;11.60;99.90
7307;DHT22;3694;48.732;9.248;2023-08-31T02:35:21;11.60;99.90
7307;DHT22;3694;48.732;9.248;2023-08-31T02:37:46;11.70;99.90
7307;DHT22;3694;48.732;9.248;2023-08-31T02:40:12;11.70;99.90
7307;DHT22;3694;48.732;9.248;2023-08-31T02:42:38;11.80;99.90
7307;DHT22;3694;48.732;9.248;2023-08-31T02:45:03;11.80;99.90
7307;DHT22;3694;48.732;9.248;2023-08-31T02:47:29;11.80;99.90
7307;DHT22;3694;48.732;9.248;2023-08-31T02:49:55;11.90;99.90
7307;DHT22;3694;48.732;9.248;2023-08-31T02:52:20;11.90;99.90
7307;DHT22;3694;48.732;9.248;2023-08-31T02:54:46;11.90;99.90
7307;DHT22;3694;48.732;9.248;2023-08-31T02:57:11;11.90;99.90
7307;DHT22;3694;48.732;9.248;2023-08-31T02:59:37;11.90;99.90
7307;DHT22;3694;48.732;9.248;2023-08-31T03:02:03;12.00;99.90
7307;DHT22;3694;48.732;9.248;2023-08-31T03:04:29;12.00;99.90
7307;DHT22;3694;48.732;9.248;2023-08-31T03:06:55;12.00;99.90
7307;DHT22;3694;48.732;9.248;2023-08-31T03:09:20;11.90;99.90
7307;DHT22;3694;48.732;9.248;2023-08-31T03:11:46;11.90;99.90
7307;DHT22;3694;48.732;9.248;2023-08-31T03:14:12;11.90;99.90
7307;DHT22;3694;48.732;9.248;2023-08-31T03:16:37;12.00;99.90
7307;DHT22;3694;48.732;9.248;2023-08-31T03:19:03;11.80;99.90
7307;DHT22;3694;48.732;9.248;2023-08-31T03:21:28;11.80;99.90
7307;DHT22;3694;48.732;9.248;2023-08-31T03:23:54;11.70;99.90
7307;DHT22;3694;48.732;9.248;2023-08-31T03:26:19;11.70;99.90
7307;DHT22;3694;48.732;9.248;2023-08-31T03:28:45;11.70;99.90
7307;DHT22;3694;48.732;9.248;2023-08-31T03:31:10;11.60;99.90
7307;DHT22;3694;48.732;9.248;2023-08-31T03:33:36;11.60;99.90
7307;DHT22;3694;48.732;9.248;2023-08-31T03:36:02;11.80;99.90
7307;DHT22;3694;48.732;9.248;2023-08-31T03:38:33;11.40;99.90
7307;DHT22;3694;48.732;9.248;2023-08-31T03:41:02;11.50;99.90
7307;DHT22;3694;48.732;9.248;2023-08-31T03:43:28;11.40;99.90
7307;DHT22;3694;48.732;9.248;2023-08-31T03:45:55;11.40;99.90
7307;DHT22;3694;48.732;9.248;2023-08-31T03:48:22;11.30;99.90
7307;DHT22;3694;48.732;9.248;2023-08-31T03:50:51;11.30;99.90
7307;DHT22;3694;48.732;9.248;2023-08-31T03:53:17;11.30;99.90
7307;DHT22;3694;48.732;9.248;2023-08-31T03:55:43;11.30;99.90
7307;DHT22;3694;48.732;9.248;2023-08-31T03:58:08;11.30;99.90
7307;DHT22;3694;48.732;9.248;2023-08-31T04:00:34;11.30;99.90
7307;DHT22;3694;48.732;9.248;2023-08-31T04:02:59;11.30;99.90
7307;DHT22;3694;48.732;9.248;2023-08-31T04:05:25;11.20;99.90
7307;DHT22;3694;48.732;9.248;2023-08-31T04:07:51;11.20;99.90
7307;DHT22;3694;48.732;9.248;2023-08-31T04:10:16;11.30;99.90
7307;DHT22;3694;48.732;9.248;2023-08-31T04:12:42;11.20;99.90
7307;DHT22;3694;48.732;9.248;2023-08-31T04:15:08;11.20;99.90
7307;DHT22;3694;48.732;9.248;2023-08-31T04:17:34;11.10;99.90
7307;DHT22;3694;48.732;9.248;2023-08-31T04:20:00;11.20;99.90
7307;DHT22;3694;48.732;9.248;2023-08-31T04:22:26;11.10;99.90
7307;DHT22;3694;48.732;9.248;2023-08-31T04:24:52;11.10;99.90
7307;DHT22;3694;48.732;9.248;2023-08-31T04:27:18;11.00;99.90
7307;DHT22;3694;48.732;9.248;2023-08-31T04:29:43;11.00;99.90
7307;DHT22;3694;48.732;9.248;2023-08-31T04:32:09;10.90;99.90
7307;DHT22;3694;48.732;9.248;2023-08-31T04:34:34;10.90;99.90
7307;DHT22;3694;48.732;9.248;2023-08-31T04:37:01;10.80;99.90
7307;DHT22;3694;48.732;9.248;2023-08-31T04:39:27;10.90;99.90
7307;DHT22;3694;48.732;9.248;2023-08-31T04:41:52;10.80;99.90
7307;DHT22;3694;48.732;9.248;2023-08-31T04:44:18;10.80;99.90
7307;DHT22;3694;48.732;9.248;2023-08-31T04:46:43;10.70;99.90
7307;DHT22;3694;48.732;9.248;2023-08-31T04:49:09;10.50;99.90
7307;DHT22;3694;48.732;9.248;2023-08-31T04:51:35;10.60;99.90
7307;DHT22;3694;48.732;9.248;2023-08-31T04:54:04;10.80;99.90
7307;DHT22;3694;48.732;9.248;2023-08-31T04:56:31;10.80;99.90
7307;DHT22;3694;48.732;9.248;2023-08-31T04:58:58;10.80;99.90
7307;DHT22;3694;48.732;9.248;2023-08-31T05:01:24;10.90;99.90
7307;DHT22;3694;48.732;9.248;2023-08-31T05:03:49;11.00;99.90
7307;DHT22;3694;48.732;9.248;2023-08-31T05:06:15;11.00;99.90
7307;DHT22;3694;48.732;9.248;2023-08-31T05:08:40;11.00;99.90
7307;DHT22;3694;48.732;9.248;2023-08-31T05:11:06;11.10;99.90
7307;DHT22;3694;48.732;9.248;2023-08-31T05:13:32;11.10;99.90
7307;DHT22;3694;48.732;9.248;2023-08-31T05:15:57;11.20;99.90
7307;DHT22;3694;48.732;9.248;2023-08-31T05:18:23;11.20;99.90
7307;DHT22;3694;48.732;9.248;2023-08-31T05:20:48;11.30;99.90
7307;DHT22;3694;48.732;9.248;2023-08-31T05:23:14;11.50;99.90
7307;DHT22;3694;48.732;9.248;2023-08-31T05:25:44;11.60;99.90
7307;DHT22;3694;48.732;9.248;2023-08-31T05:28:10;11.70;99.90
7307;DHT22;3694;48.732;9.248;2023-08-31T05:30:35;11.70;99.90
7307;DHT22;3694;48.732;9.248;2023-08-31T05:33:02;11.80;99.90
7307;DHT22;3694;48.732;9.248;2023-08-31T05:35:29;11.80;99.90
7307;DHT22;3694;48.732;9.248;2023-08-31T05:37:55;11.90;99.90
7307;DHT22;3694;48.732;9.248;2023-08-31T05:40:21;12.00;99.90
7307;DHT22;3694;48.732;9.248;2023-08-31T05:42:47;12.00;99.90
7307;DHT22;3694;48.732;9.248;2023-08-31T05:45:12;12.00;99.90
7307;DHT22;3694;48.732;9.248;2023-08-31T05:47:40;12.00;99.90
7307;DHT22;3694;48.732;9.248;2023-08-31T05:50:06;12.30;99.90
7307;DHT22;3694;48.732;9.248;2023-08-31T05:52:31;12.20;99.90
7307;DHT22;3694;48.732;9.248;2023-08-31T05:54:57;12.30;99.90
7307;DHT22;3694;48.732;9.248;2023-08-31T05:57:23;12.40;99.90
7307;DHT22;3694;48.732;9.248;2023-08-31T05:59:48;12.40;99.90
7307;DHT22;3694;48.732;9.248;2023-08-31T06:02:14;12.40;99.90
7307;DHT22;3694;48.732;9.248;2023-08-31T06:04:40;12.40;99.90
7307;DHT22;3694;48.732;9.248;2023-08-31T06:07:05;12.40;99.90
7307;DHT22;3694;48.732;9.248;2023-08-31T06:09:31;12.40;99.90
7307;DHT22;3694;48.732;9.248;2023-08-31T06:11:56;12.50;99.90
7307;DHT22;3694;48.732;9.248;2023-08-31T06:14:22;12.60;99.90
7307;DHT22;3694;48.732;9.248;2023-08-31T06:16:47;12.70;99.90
7307;DHT22;3694;48.732;9.248;2023-08-31T06:19:13;12.80;99.90
7307;DHT22;3694;48.732;9.248;2023-08-31T06:21:41;12.80;99.90
7307;DHT22;3694;48.732;9.248;2023-08-31T06:24:07;12.80;99.90
7307;DHT22;3694;48.732;9.248;2023-08-31T06:26:35;12.90;99.90
7307;DHT22;3694;48.732;9.248;2023-08-31T06:29:01;13.10;99.90
7307;DHT22;3694;48.732;9.248;2023-08-31T06:31:29;13.10;99.90
7307;DHT22;3694;48.732;9.248;2023-08-31T06:33:54;13.10;99.90
7307;DHT22;3694;48.732;9.248;2023-08-31T06:36:20;13.00;99.90
7307;DHT22;3694;48.732;9.248;2023-08-31T06:38:45;13.10;99.90
7307;DHT22;3694;48.732;9.248;2023-08-31T06:41:11;13.50;99.90
7307;DHT22;3694;48.732;9.248;2023-08-31T06:43:36;13.80;99.90
7307;DHT22;3694;48.732;9.248;2023-08-31T06:46:02;14.10;99.90
7307;DHT22;3694;48.732;9.248;2023-08-31T06:48:27;14.90;99.90
7307;DHT22;3694;48.732;9.248;2023-08-31T06:50:54;15.40;99.90
7307;DHT22;3694;48.732;9.248;2023-08-31T06:53:19;15.70;99.90
7307;DHT22;3694;48.732;9.248;2023-08-31T06:55:45;15.70;99.90
7307;DHT22;3694;48.732;9.248;2023-08-31T06:58:10;15.90;99.90
7307;DHT22;3694;48.732;9.248;2023-08-31T07:00:36;15.80;99.90
7307;DHT22;3694;48.732;9.248;2023-08-31T07:03:01;16.00;99.90
7307;DHT22;3694;48.732;9.248;2023-08-31T07:05:27;15.80;99.90
7307;DHT22;3694;48.732;9.248;2023-08-31T07:07:55;15.80;99.90
7307;DHT22;3694;48.732;9.248;2023-08-31T07:10:21;15.70;99.90
7307;DHT22;3694;48.732;9.248;2023-08-31T07:12:47;15.90;99.90
7307;DHT22;3694;48.732;9.248;2023-08-31T07:15:12;16.70;99.90
7307;DHT22;3694;48.732;9.248;2023-08-31T07:17:38;18.00;99.90
7307;DHT22;3694;48.732;9.248;2023-08-31T07:20:04;19.30;99.90
7307;DHT22;3694;48.732;9.248;2023-08-31T07:22:34;20.10;99.90
7307;DHT22;3694;48.732;9.248;2023-08-31T07:24:59;20.80;99.60
7307;DHT22;3694;48.732;9.248;2023-08-31T07:27:25;21.30;98.70
7307;DHT22;3694;48.732;9.248;2023-08-31T07:29:50;21.80;97.90
7307;DHT22;3694;48.732;9.248;2023-08-31T07:32:16;22.00;97.00
7307;DHT22;3694;48.732;9.248;2023-08-31T07:34:42;21.70;94.70
7307;DHT22;3694;48.732;9.248;2023-08-31T07:37:07;20.50;94.70
7307;DHT22;3694;48.732;9.248;2023-08-31T07:39:33;19.80;95.80
7307;DHT22;3694;48.732;9.248;2023-08-31T07:41:58;19.50;96.40
7307;DHT22;3694;48.732;9.248;2023-08-31T07:44:24;19.10;96.50
7307;DHT22;3694;48.732;9.248;2023-08-31T07:46:50;18.40;97.30
7307;DHT22;3694;48.732;9.248;2023-08-31T07:49:16;18.10;97.40
7307;DHT22;3694;48.732;9.248;2023-08-31T07:51:41;18.20;97.30
7307;DHT22;3694;48.732;9.248;2023-08-31T07:54:07;18.50;97.30
7307;DHT22;3694;48.732;9.248;2023-08-31T07:56:33;19.00;96.50
7307;DHT22;3694;48.732;9.248;2023-08-31T07:58:58;19.60;97.00
7307;DHT22;3694;48.732;9.248;2023-08-31T08:01:24;20.20;94.80
7307;DHT22;3694;48.732;9.248;2023-08-31T08:03:49;20.90;94.50
7307;DHT22;3694;48.732;9.248;2023-08-31T08:06:15;21.20;92.50
7307;DHT22;3694;48.732;9.248;2023-08-31T08:08:40;21.80;92.30
7307;DHT22;3694;48.732;9.248;2023-08-31T08:11:06;21.70;91.00
7307;DHT22;3694;48.732;9.248;2023-08-31T08:13:32;21.30;89.90
7307;DHT22;3694;48.732;9.248;2023-08-31T08:15:57;21.30;90.30
7307;DHT22;3694;48.732;9.248;2023-08-31T08:18:23;21.00;90.70
7307;DHT22;3694;48.732;9.248;2023-08-31T08:20:51;21.00;90.00
7307;DHT22;3694;48.732;9.248;2023-08-31T08:23:17;21.10;87.80
7307;DHT22;3694;48.732;9.248;2023-08-31T08:25:43;21.20;83.10
7307;DHT22;3694;48.732;9.248;2023-08-31T08:28:08;21.20;83.70
7307;DHT22;3694;48.732;9.248;2023-08-31T08:30:34;21.50;85.00
7307;DHT22;3694;48.732;9.248;2023-08-31T08:32:59;21.20;85.10
7307;DHT22;3694;48.732;9.248;2023-08-31T08:35:25;21.40;81.90
7307;DHT22;3694;48.732;9.248;2023-08-31T08:37:52;21.10;84.70
7307;DHT22;3694;48.732;9.248;2023-08-31T08:40:18;21.30;82.50
7307;DHT22;3694;48.732;9.248;2023-08-31T08:42:47;21.30;81.60
7307;DHT22;3694;48.732;9.248;2023-08-31T08:45:15;21.40;84.20
7307;DHT22;3694;48.732;9.248;2023-08-31T08:47:42;21.00;81.10
7307;DHT22;3694;48.732;9.248;2023-08-31T08:50:12;21.10;82.90
7307;DHT22;3694;48.732;9.248;2023-08-31T08:52:39;20.80;83.10
7307;DHT22;3694;48.732;9.248;2023-08-31T08:55:05;20.30;83.60
7307;DHT22;3694;48.732;9.248;2023-08-31T08:57:31;19.90;83.20
7307;DHT22;3694;48.732;9.248;2023-08-31T08:59:58;20.30;83.40
7307;DHT22;3694;48.732;9.248;2023-08-31T09:02:23;19.80;82.50
7307;DHT22;3694;48.732;9.248;2023-08-31T09:04:49;19.60;82.40
7307;DHT22;3694;48.732;9.248;2023-08-31T09:07:22;19.60;82.70
7307;DHT22;3694;48.732;9.248;2023-08-31T09:09:53;19.10;81.10
7307;DHT22;3694;48.732;9.248;2023-08-31T09:12:22;18.40;81.90
7307;DHT22;3694;48.732;9.248;2023-08-31T09:15:01;17.90;82.60
7307;DHT22;3694;48.732;9.248;2023-08-31T09:17:37;17.70;84.60
7307;DHT22;3694;48.732;9.248;2023-08-31T09:20:04;17.60;84.50
7307;DHT22;3694;48.732;9.248;2023-08-31T09:22:30;17.40;83.90
7307;DHT22;3694;48.732;9.248;2023-08-31T09:24:55;17.40;84.90
7307;DHT22;3694;48.732;9.248;2023-08-31T09:27:21;17.60;85.70
7307;DHT22;3694;48.732;9.248;2023-08-31T09:29:48;18.20;86.00
7307;DHT22;3694;48.732;9.248;2023-08-31T09:32:17;19.10;86.90
7307;DHT22;3694;48.732;9.248;2023-08-31T09:34:43;19.60;84.20
7307;DHT22;3694;48.732;9.248;2023-08-31T09:37:09;20.10;86.40
7307;DHT22;3694;48.732;9.248;2023-08-31T09:39:39;20.60;84.10
7307;DHT22;3694;48.732;9.248;2023-08-31T09:42:05;20.30;82.20
7307;DHT22;3694;48.732;9.248;2023-08-31T09:44:31;19.70;80.90
7307;DHT22;3694;48.732;9.248;2023-08-31T09:46:57;19.10;80.50
7307;DHT22;3694;48.732;9.248;2023-08-31T09:49:24;18.60;81.90
7307;DHT22;3694;48.732;9.248;2023-08-31T09:51:51;18.60;81.40
7307;DHT22;3694;48.732;9.248;2023-08-31T09:54:20;18.60;80.60
7307;DHT22;3694;48.732;9.248;2023-08-31T09:56:47;18.90;80.30
7307;DHT22;3694;48.732;9.248;2023-08-31T09:59:15;19.10;79.60
7307;DHT22;3694;48.732;9.248;2023-08-31T10:01:41;19.40;81.30
7307;DHT22;3694;48.732;9.248;2023-08-31T10:04:08;20.10;80.10
7307;DHT22;3694;48.732;9.248;2023-08-31T10:06:41;20.90;77.10
7307;DHT22;3694;48.732;9.248;2023-08-31T10:09:08;20.70;76.20
7307;DHT22;3694;48.732;9.248;2023-08-31T10:11:41;21.00;77.80
7307;DHT22;3694;48.732;9.248;2023-08-31T10:14:09;20.60;76.50
7307;DHT22;3694;48.732;9.248;2023-08-31T10:16:37;20.20;76.30
7307;DHT22;3694;48.732;9.248;2023-08-31T10:19:04;20.60;78.80
7307;DHT22;3694;48.732;9.248;2023-08-31T10:21:30;21.00;79.20
7307;DHT22;3694;48.732;9.248;2023-08-31T10:23:55;21.20;74.20
7307;DHT22;3694;48.732;9.248;2023-08-31T10:26:28;21.00;76.30
7307;DHT22;3694;48.732;9.248;2023-08-31T10:28:55;20.30;74.30
7307;DHT22;3694;48.732;9.248;2023-08-31T10:31:22;19.70;74.20
7307;DHT22;3694;48.732;9.248;2023-08-31T10:34:05;19.90;75.70
7307;DHT22;3694;48.732;9.248;2023-08-31T10:36:45;20.30;77.30
7307;DHT22;3694;48.732;9.248;2023-08-31T10:39:15;20.50;75.00
7307;DHT22;3694;48.732;9.248;2023-08-31T10:41:41;20.10;76.40
7307;DHT22;3694;48.732;9.248;2023-08-31T10:44:20;19.90;74.40
7307;DHT22;3694;48.732;9.248;2023-08-31T10:46:47;20.30;75.70
7307;DHT22;3694;48.732;9.248;2023-08-31T10:49:14;20.80;76.00
7307;DHT22;3694;48.732;9.248;2023-08-31T10:51:42;21.00;75.00
7307;DHT22;3694;48.732;9.248;2023-08-31T10:54:12;21.10;74.70
7307;DHT22;3694;48.732;9.248;2023-08-31T11:02:43;21.00;76.70
7307;DHT22;3694;48.732;9.248;2023-08-31T11:05:14;20.60;74.10
7307;DHT22;3694;48.732;9.248;2023-08-31T11:07:41;20.80;75.90
7307;DHT22;3694;48.732;9.248;2023-08-31T11:10:17;20.80;75.90
7307;DHT22;3694;48.732;9.248;2023-08-31T11:12:48;20.70;73.30
7307;DHT22;3694;48.732;9.248;2023-08-31T11:15:17;20.30;73.30
7307;DHT22;3694;48.732;9.248;2023-08-31T11:17:43;20.00;73.00
7307;DHT22;3694;48.732;9.248;2023-08-31T11:20:13;19.50;73.50
7307;DHT22;3694;48.732;9.248;2023-08-31T11:22:41;19.70;75.40
7307;DHT22;3694;48.732;9.248;2023-08-31T11:25:08;20.40;79.10
7307;DHT22;3694;48.732;9.248;2023-08-31T11:27:34;21.00;74.50
7307;DHT22;3694;48.732;9.248;2023-08-31T11:29:59;21.80;74.90
7307;DHT22;3694;48.732;9.248;2023-08-31T11:32:25;21.70;74.70
7307;DHT22;3694;48.732;9.248;2023-08-31T11:34:51;22.00;75.10
7307;DHT22;3694;48.732;9.248;2023-08-31T11:37:16;22.50;77.40
7307;DHT22;3694;48.732;9.248;2023-08-31T11:39:52;22.90;73.40
7307;DHT22;3694;48.732;9.248;2023-08-31T11:42:19;22.70;73.80
7307;DHT22;3694;48.732;9.248;2023-08-31T11:44:49;22.10;72.40
7307;DHT22;3694;48.732;9.248;2023-08-31T11:47:16;21.80;72.50
7307;DHT22;3694;48.732;9.248;2023-08-31T11:49:42;22.00;73.70
7307;DHT22;3694;48.732;9.248;2023-08-31T11:52:10;21.80;72.50
7307;DHT22;3694;48.732;9.248;2023-08-31T11:54:40;22.50;74.10
7307;DHT22;3694;48.732;9.248;2023-08-31T11:57:07;22.40;74.10
7307;DHT22;3694;48.732;9.248;2023-08-31T11:59:35;22.30;73.00
7307;DHT22;3694;48.732;9.248;2023-08-31T12:02:02;22.40;73.40
7307;DHT22;3694;48.732;9.248;2023-08-31T12:04:30;22.30;73.90
7307;DHT22;3694;48.732;9.248;2023-08-31T12:07:01;22.60;73.40
7307;DHT22;3694;48.732;9.248;2023-08-31T12:09:28;22.80;71.20
7307;DHT22;3694;48.732;9.248;2023-08-31T12:11:53;23.00;73.30
7307;DHT22;3694;48.732;9.248;2023-08-31T12:14:28;22.70;71.90
7307;DHT22;3694;48.732;9.248;2023-08-31T12:17:05;22.30;70.80
7307;DHT22;3694;48.732;9.248;2023-08-31T12:19:31;21.70;70.80
7307;DHT22;3694;48.732;9.248;2023-08-31T12:21:57;21.30;72.00
7307;DHT22;3694;48.732;9.248;2023-08-31T12:24:23;21.10;72.70
7307;DHT22;3694;48.732;9.248;2023-08-31T12:26:49;21.00;71.90
7307;DHT22;3694;48.732;9.248;2023-08-31T12:29:16;20.80;71.20
7307;DHT22;3694;48.732;9.248;2023-08-31T12:31:41;20.40;69.80
7307;DHT22;3694;48.732;9.248;2023-08-31T12:34:08;20.10;72.00
7307;DHT22;3694;48.732;9.248;2023-08-31T12:36:34;20.00;72.90
7307;DHT22;3694;48.732;9.248;2023-08-31T12:39:02;19.70;75.00
7307;DHT22;3694;48.732;9.248;2023-08-31T12:41:31;19.60;73.50
7307;DHT22;3694;48.732;9.248;2023-08-31T12:43:56;19.60;73.40
7307;DHT22;3694;48.732;9.248;2023-08-31T12:46:23;19.50;73.70
7307;DHT22;3694;48.732;9.248;2023-08-31T12:48:49;19.60;74.10
7307;DHT22;3694;48.732;9.248;2023-08-31T12:51:16;20.30;76.70
7307;DHT22;3694;48.732;9.248;2023-08-31T12:53:41;20.50;74.10
7307;DHT22;3694;48.732;9.248;2023-08-31T12:56:07;20.80;75.80
7307;DHT22;3694;48.732;9.248;2023-08-31T12:58:32;21.10;76.10
7307;DHT22;3694;48.732;9.248;2023-08-31T13:01:01;21.10;75.50
7307;DHT22;3694;48.732;9.248;2023-08-31T13:03:27;21.00;72.60
7307;DHT22;3694;48.732;9.248;2023-08-31T13:05:53;20.60;73.40
7307;DHT22;3694;48.732;9.248;2023-08-31T13:08:19;20.20;72.80
7307;DHT22;3694;48.732;9.248;2023-08-31T13:10:51;19.80;72.70
7307;DHT22;3694;48.732;9.248;2023-08-31T13:13:18;19.80;73.80
7307;DHT22;3694;48.732;9.248;2023-08-31T13:15:46;19.40;74.00
7307;DHT22;3694;48.732;9.248;2023-08-31T13:18:11;19.10;74.80
7307;DHT22;3694;48.732;9.248;2023-08-31T13:20:37;19.00;76.50
7307;DHT22;3694;48.732;9.248;2023-08-31T13:23:03;19.30;78.70
7307;DHT22;3694;48.732;9.248;2023-08-31T13:25:28;19.40;76.00
7307;DHT22;3694;48.732;9.248;2023-08-31T13:27:54;19.80;76.20
7307;DHT22;3694;48.732;9.248;2023-08-31T13:30:20;19.70;77.00
7307;DHT22;3694;48.732;9.248;2023-08-31T13:32:45;20.10;77.10
7307;DHT22;3694;48.732;9.248;2023-08-31T13:35:11;20.20;78.90
7307;DHT22;3694;48.732;9.248;2023-08-31T13:37:36;20.30;76.30
7307;DHT22;3694;48.732;9.248;2023-08-31T13:40:02;20.20;76.90
7307;DHT22;3694;48.732;9.248;2023-08-31T13:42:34;19.90;75.30
7307;DHT22;3694;48.732;9.248;2023-08-31T13:45:01;20.10;77.60
7307;DHT22;3694;48.732;9.248;2023-08-31T13:47:28;20.60;76.90
7307;DHT22;3694;48.732;9.248;2023-08-31T13:49:54;21.00;77.10
7307;DHT22;3694;48.732;9.248;2023-08-31T13:52:19;21.40;77.50
7307;DHT22;3694;48.732;9.248;2023-08-31T13:54:46;21.30;74.20
7307;DHT22;3694;48.732;9.248;2023-08-31T13:57:12;21.80;76.90
7307;DHT22;3694;48.732;9.248;2023-08-31T13:59:42;22.40;77.40
7307;DHT22;3694;48.732;9.248;2023-08-31T14:02:08;23.00;74.90
7307;DHT22;3694;48.732;9.248;2023-08-31T14:04:34;22.90;73.50
7307;DHT22;3694;48.732;9.248;2023-08-31T14:06:59;22.30;75.10
7307;DHT22;3694;48.732;9.248;2023-08-31T14:09:27;21.90;73.80
7307;DHT22;3694;48.732;9.248;2023-08-31T14:11:52;21.40;75.10
7307;DHT22;3694;48.732;9.248;2023-08-31T14:14:19;20.70;74.30
7307;DHT22;3694;48.732;9.248;2023-08-31T14:16:45;20.50;74.70
7307;DHT22;3694;48.732;9.248;2023-08-31T14:19:11;20.00;75.90
7307;DHT22;3694;48.732;9.248;2023-08-31T14:21:37;19.60;76.50
7307;DHT22;3694;48.732;9.248;2023-08-31T14:24:02;19.40;77.00
7307;DHT22;3694;48.732;9.248;2023-08-31T14:26:29;19.00;76.80
7307;DHT22;3694;48.732;9.248;2023-08-31T14:28:55;18.90;79.50
7307;DHT22;3694;48.732;9.248;2023-08-31T14:31:20;18.90;78.60
7307;DHT22;3694;48.732;9.248;2023-08-31T14:33:46;18.90;78.50
7307;DHT22;3694;48.732;9.248;2023-08-31T14:36:13;18.90;78.10
7307;DHT22;3694;48.732;9.248;2023-08-31T14:38:39;19.10;77.30
7307;DHT22;3694;48.732;9.248;2023-08-31T14:41:05;19.40;77.80
7307;DHT22;3694;48.732;9.248;2023-08-31T14:43:34;19.50;76.20
7307;DHT22;3694;48.732;9.248;2023-08-31T14:46:00;19.50;76.70
7307;DHT22;3694;48.732;9.248;2023-08-31T14:48:30;19.50;76.50
7307;DHT22;3694;48.732;9.248;2023-08-31T14:50:55;19.40;77.10
7307;DHT22;3694;48.732;9.248;2023-08-31T14:53:24;19.40;77.30
7307;DHT22;3694;48.732;9.248;2023-08-31T14:55:49;19.40;78.00
7307;DHT22;3694;48.732;9.248;2023-08-31T14:58:15;19.50;78.40
7307;DHT22;3694;48.732;9.248;2023-08-31T15:00:41;19.60;77.50
7307;DHT22;3694;48.732;9.248;2023-08-31T15:03:06;19.50;76.30
7307;DHT22;3694;48.732;9.248;2023-08-31T15:05:32;19.60;77.40
7307;DHT22;3694;48.732;9.248;2023-08-31T15:07:59;19.50;76.40
7307;DHT22;3694;48.732;9.248;2023-08-31T15:10:27;19.40;76.90
7307;DHT22;3694;48.732;9.248;2023-08-31T15:12:52;19.50;78.40
7307;DHT22;3694;48.732;9.248;2023-08-31T15:15:23;19.60;78.00
7307;DHT22;3694;48.732;9.248;2023-08-31T15:17:49;19.40;79.00
7307;DHT22;3694;48.732;9.248;2023-08-31T15:20:14;19.30;79.20
7307;DHT22;3694;48.732;9.248;2023-08-31T15:22:40;19.10;79.90
7307;DHT22;3694;48.732;9.248;2023-08-31T15:25:06;18.90;78.10
7307;DHT22;3694;48.732;9.248;2023-08-31T15:27:31;18.80;80.70
7307;DHT22;3694;48.732;9.248;2023-08-31T15:29:57;18.70;79.80
7307;DHT22;3694;48.732;9.248;2023-08-31T15:32:22;19.00;80.60
7307;DHT22;3694;48.732;9.248;2023-08-31T15:34:48;19.10;80.10
7307;DHT22;3694;48.732;9.248;2023-08-31T15:37:13;19.20;80.60
7307;DHT22;3694;48.732;9.248;2023-08-31T15:39:39;19.70;81.60
7307;DHT22;3694;48.732;9.248;2023-08-31T15:42:04;20.10;80.30
7307;DHT22;3694;48.732;9.248;2023-08-31T15:44:30;20.00;78.50
7307;DHT22;3694;48.732;9.248;2023-08-31T15:46:55;19.90;78.40
7307;DHT22;3694;48.732;9.248;2023-08-31T15:49:22;19.70;77.50
7307;DHT22;3694;48.732;9.248;2023-08-31T15:51:47;19.30;78.50
7307;DHT22;3694;48.732;9.248;2023-08-31T15:54:14;19.10;79.40
7307;DHT22;3694;48.732;9.248;2023-08-31T15:56:39;18.80;80.20
7307;DHT22;3694;48.732;9.248;2023-08-31T15:59:05;18.60;80.20
7307;DHT22;3694;48.732;9.248;2023-08-31T16:01:30;18.40;80.50
7307;DHT22;3694;48.732;9.248;2023-08-31T16:03:56;18.10;85.00
7307;DHT22;3694;48.732;9.248;2023-08-31T16:06:22;18.00;85.70
7307;DHT22;3694;48.732;9.248;2023-08-31T16:08:47;17.90;87.10
7307;DHT22;3694;48.732;9.248;2023-08-31T16:11:13;17.70;85.20
7307;DHT22;3694;48.732;9.248;2023-08-31T16:13:39;17.60;85.70
7307;DHT22;3694;48.732;9.248;2023-08-31T16:16:05;17.50;84.60